createdAt,value
2023-04-05T00:01:50.035Z,101294.56
2023-04-05T00:06:55.205Z,101288.72
2023-04-05T00:11:57.995Z,101286.53
2023-04-05T00:17:00.999Z,101285.50
2023-04-05T00:22:05.309Z,101284.66
2023-04-05T00:27:08.132Z,101278.94
2023-04-05T00:32:11.209Z,101283.06
2023-04-05T00:37:15.543Z,101269.53
2023-04-05T00:42:18.370Z,101274.88
2023-04-05T00:47:21.336Z,101273.56
2023-04-05T00:52:27.115Z,101269.78
2023-04-05T00:57:30.280Z,101269.53
2023-04-05T01:02:36.611Z,101265.94
2023-04-05T01:07:47.481Z,101261.38
2023-04-05T01:12:50.786Z,101255.50
2023-04-05T01:17:54.233Z,101248.44
2023-04-05T01:23:14.977Z,101251.09
2023-04-05T01:28:36.090Z,101257.69
2023-04-05T01:33:46.096Z,101262.16
2023-04-05T01:38:52.000Z,101244.28
2023-04-05T01:43:54.752Z,101244.69
2023-04-05T01:48:59.340Z,101243.22
2023-04-05T01:54:02.279Z,101232.19
2023-04-05T01:59:05.326Z,101233.44
2023-04-05T02:04:09.605Z,101225.38
2023-04-05T02:09:13.882Z,101228.28
2023-04-05T02:14:17.167Z,101219.59
2023-04-05T02:19:23.116Z,101217.19
2023-04-05T02:24:26.554Z,101216.53
2023-04-05T02:29:29.746Z,101229.19
2023-04-05T02:34:34.326Z,101223.53
2023-04-05T02:39:37.134Z,101216.03
2023-04-05T02:44:41.163Z,101226.63
2023-04-05T02:49:47.241Z,101218.69
2023-04-05T02:54:51.802Z,101212.59
2023-04-05T03:00:01.191Z,101216.59
2023-04-05T03:05:09.771Z,101210.97
2023-04-05T03:10:18.646Z,101216.72
2023-04-05T03:15:28.051Z,101204.38
2023-04-05T03:20:35.501Z,101204.13
2023-04-05T03:25:41.623Z,101197.66
2023-04-05T03:30:45.900Z,101192.28
2023-04-05T03:35:56.417Z,101187.66
2023-04-05T03:41:00.103Z,101195.59
2023-04-05T03:46:05.160Z,101189.28
2023-04-05T03:51:09.586Z,101182.25
2023-04-05T03:56:12.608Z,101190.81
2023-04-05T04:01:21.380Z,101184.91
2023-04-05T04:06:27.460Z,101187.22
2023-04-05T04:11:30.878Z,101195.72
2023-04-05T04:16:37.542Z,101196.88
2023-04-05T04:21:53.110Z,101182.88
2023-04-05T04:27:19.966Z,101189.78
2023-04-05T04:32:57.978Z,101190.72
2023-04-05T04:38:09.137Z,101178.63
2023-04-05T04:43:26.713Z,101184.91
2023-04-05T04:48:48.194Z,101179.63
2023-04-05T04:54:07.373Z,101183.28
2023-04-05T04:59:10.390Z,101185.97
2023-04-05T05:04:13.328Z,101184.31
2023-04-05T05:09:19.216Z,101189.34
2023-04-05T05:14:26.653Z,101186.78
2023-04-05T05:19:30.112Z,101196.53
2023-04-05T05:24:35.506Z,101195.69
2023-04-05T05:29:38.323Z,101194.63
2023-04-05T05:34:41.725Z,101190.59
2023-04-05T05:39:45.904Z,101196.41
2023-04-05T05:44:48.712Z,101198.88
2023-04-05T05:49:51.533Z,101201.16
2023-04-05T05:54:55.865Z,101193.09
2023-04-05T05:59:58.971Z,101201.50
2023-04-05T06:05:02.246Z,101196.53
2023-04-05T06:10:07.648Z,101186.44
2023-04-05T06:15:11.392Z,101190.81
2023-04-05T06:20:14.491Z,101192.72
2023-04-05T06:25:18.988Z,101189.97
2023-04-05T06:30:22.016Z,101188.25
2023-04-05T06:35:27.789Z,101189.25
2023-04-05T06:40:32.138Z,101188.31
2023-04-05T06:45:35.015Z,101186.97
2023-04-05T06:50:37.894Z,101191.69
2023-04-05T06:55:42.608Z,101180.34
2023-04-05T07:00:45.497Z,101179.31
2023-04-05T07:05:52.798Z,101168.72
2023-04-05T07:10:57.008Z,101175.28
2023-04-05T07:16:03.657Z,101161.06
2023-04-05T07:21:06.657Z,101156.00
2023-04-05T07:26:12.382Z,101148.84
2023-04-05T07:31:16.451Z,101148.53
2023-04-05T07:36:19.409Z,101157.16
2023-04-05T07:41:23.761Z,101152.56
2023-04-05T07:46:27.322Z,101150.47
2023-04-05T07:51:31.535Z,101151.34
2023-04-05T07:56:37.775Z,101151.22
2023-04-05T08:01:40.555Z,101152.69
2023-04-05T08:06:43.321Z,101146.66
2023-04-05T08:11:47.450Z,101143.66
2023-04-05T08:16:50.774Z,101145.25
2023-04-05T08:21:54.041Z,101142.47
2023-04-05T08:26:58.228Z,101141.63
2023-04-05T08:32:01.019Z,101138.41
2023-04-05T08:37:03.861Z,101137.88
2023-04-05T08:42:13.242Z,101132.00
2023-04-05T08:47:20.690Z,101131.16
2023-04-05T08:52:23.545Z,101139.97
2023-04-05T08:57:32.637Z,101134.78
2023-04-05T09:02:36.544Z,101135.69
2023-04-05T09:07:40.076Z,101128.47
2023-04-05T09:12:44.409Z,101132.94
2023-04-05T09:17:47.457Z,101125.19
2023-04-05T09:22:50.538Z,101118.13
2023-04-05T09:27:57.655Z,101126.81
2023-04-05T09:33:01.324Z,101114.06
2023-04-05T09:38:06.157Z,101115.03
2023-04-05T09:43:13.326Z,101105.09
2023-04-05T09:48:16.228Z,101105.00
2023-04-05T09:53:19.332Z,101103.16
2023-04-05T09:58:33.882Z,101101.59
2023-04-05T10:03:48.430Z,101102.81
2023-04-05T10:08:52.540Z,101089.66
2023-04-05T10:13:56.694Z,101088.84
2023-04-05T10:18:59.479Z,101079.47
2023-04-05T10:24:11.129Z,101076.91
2023-04-05T10:29:21.180Z,101078.00
2023-04-05T10:34:32.331Z,101071.44
2023-04-05T10:39:41.023Z,101072.44
2023-04-05T10:44:49.372Z,101069.00
2023-04-05T10:49:55.266Z,101061.72
2023-04-05T10:55:00.027Z,101064.03
2023-04-05T11:00:05.265Z,101048.31
2023-04-05T11:05:29.269Z,101046.44
2023-04-05T11:10:33.169Z,101040.59
2023-04-05T11:15:37.823Z,101046.53
2023-04-05T11:20:45.174Z,101035.59
2023-04-05T11:25:51.682Z,101031.50
2023-04-05T11:30:58.805Z,101030.94
2023-04-05T11:36:02.942Z,101017.06
2023-04-05T11:41:17.480Z,101010.00
2023-04-05T11:46:22.532Z,101015.66
2023-04-05T11:51:29.106Z,101005.41
2023-04-05T11:56:31.952Z,100997.03
2023-04-05T12:01:36.388Z,100997.22
2023-04-05T12:06:39.364Z,100979.31
2023-04-05T12:11:42.274Z,100972.50
2023-04-05T12:16:51.306Z,100974.16
2023-04-05T12:21:54.220Z,100975.81
2023-04-05T12:26:59.149Z,100962.47
2023-04-05T12:32:04.885Z,100964.03
2023-04-05T12:37:07.718Z,100951.53
2023-04-05T12:42:18.522Z,100950.53
2023-04-05T12:47:22.727Z,100941.91
2023-04-05T12:52:28.181Z,100933.44
2023-04-05T12:57:32.162Z,100927.63
2023-04-05T13:02:36.635Z,100923.91
2023-04-05T13:07:39.967Z,100915.63
2023-04-05T13:12:43.141Z,100917.06
2023-04-05T13:17:49.878Z,100908.94
2023-04-05T13:22:53.074Z,100898.34
2023-04-05T13:27:56.027Z,100904.28
2023-04-05T13:33:00.295Z,100906.94
2023-04-05T13:38:04.542Z,100899.00
2023-04-05T13:43:07.623Z,100903.88
2023-04-05T13:48:11.868Z,100890.47
2023-04-05T13:53:15.434Z,100888.75
2023-04-05T13:58:18.380Z,100883.75
2023-04-05T14:03:22.895Z,100877.03
2023-04-05T14:08:25.889Z,100864.78
2023-04-05T14:13:28.655Z,100857.09
2023-04-05T14:18:32.889Z,100853.91
2023-04-05T14:23:38.376Z,100855.78
2023-04-05T14:28:41.432Z,100837.19
2023-04-05T14:33:45.749Z,100838.94
2023-04-05T14:38:48.867Z,100834.69
2023-04-05T14:43:51.719Z,100835.16
2023-04-05T14:48:56.047Z,100829.03
2023-04-05T14:53:58.861Z,100829.13
2023-04-05T14:59:02.477Z,100824.47
2023-04-05T15:04:09.280Z,100813.09
2023-04-05T15:09:12.342Z,100819.13
2023-04-05T15:14:24.816Z,100818.47
2023-04-05T15:19:36.185Z,100804.34
2023-04-05T15:24:40.454Z,100805.28
2023-04-05T15:29:43.277Z,100797.53
2023-04-05T15:34:47.483Z,100800.44
2023-04-05T15:39:50.270Z,100793.19
2023-04-05T15:44:53.086Z,100788.56
2023-04-05T15:49:58.336Z,100787.16
2023-04-05T15:55:01.232Z,100783.91
2023-04-05T16:00:04.806Z,100775.22
2023-04-05T16:05:09.309Z,100777.94
2023-04-05T16:10:12.670Z,100782.13
2023-04-05T16:15:15.570Z,100774.63
2023-04-05T16:20:19.880Z,100769.06
2023-04-05T16:25:22.816Z,100771.78
2023-04-05T16:30:26.119Z,100757.03
2023-04-05T16:35:31.111Z,100768.50
2023-04-05T16:40:34.313Z,100766.25
2023-04-05T16:45:37.489Z,100766.00
2023-04-05T16:50:42.155Z,100762.00
2023-04-05T16:55:45.005Z,100758.50
2023-04-05T17:00:47.873Z,100758.75
2023-04-05T17:05:52.192Z,100760.34
2023-04-05T17:10:55.199Z,100758.03
2023-04-05T17:15:58.106Z,100757.13
2023-04-05T17:21:02.346Z,100761.91
2023-04-05T17:26:05.546Z,100758.38
2023-04-05T17:31:08.478Z,100760.28
2023-04-05T17:36:12.820Z,100751.84
2023-04-05T17:41:15.709Z,100758.75
2023-04-05T17:46:27.269Z,100755.47
2023-04-05T17:51:34.929Z,100756.78
2023-04-05T17:56:38.121Z,100756.38
2023-04-05T18:01:41.067Z,100761.19
2023-04-05T18:06:45.244Z,100753.25
2023-04-05T18:11:48.082Z,100757.19
2023-04-05T18:16:51.142Z,100762.66
2023-04-05T18:21:55.400Z,100767.31
2023-04-05T18:26:58.430Z,100774.34
2023-04-05T18:32:01.479Z,100771.22
2023-04-05T18:37:06.082Z,100776.69
2023-04-05T18:42:09.069Z,100782.50
2023-04-05T18:47:11.943Z,100791.78
2023-04-05T18:52:21.874Z,100786.72
2023-04-05T18:57:26.360Z,100784.88
2023-04-05T19:02:29.316Z,100798.81
2023-04-05T19:07:33.576Z,100799.03
2023-04-05T19:12:36.395Z,100806.88
2023-04-05T19:17:39.208Z,100817.84
2023-04-05T19:22:43.498Z,100815.50
2023-04-05T19:27:46.464Z,100820.34
2023-04-05T19:32:49.818Z,100822.63
2023-04-05T19:37:54.062Z,100815.84
2023-04-05T19:42:56.922Z,100817.03
2023-04-05T19:48:01.665Z,100820.78
2023-04-05T19:53:08.668Z,100811.50
2023-04-05T19:58:12.586Z,100818.72
2023-04-05T20:03:30.286Z,100810.91
2023-04-05T20:08:36.494Z,100811.44
2023-04-05T20:13:43.186Z,100811.78
2023-04-05T20:18:47.296Z,100805.75
2023-04-05T20:23:51.645Z,100812.13
2023-04-05T20:28:55.503Z,100797.88
2023-04-05T20:33:59.706Z,100804.41
2023-04-05T20:39:06.136Z,100800.97
2023-04-05T20:44:09.182Z,100805.88
2023-04-05T20:49:12.514Z,100798.75
2023-04-05T20:54:16.796Z,100797.88
2023-04-05T20:59:19.757Z,100796.97
2023-04-05T21:04:22.646Z,100799.19
2023-04-05T21:09:27.727Z,100788.88
2023-04-05T21:14:30.562Z,100784.22
2023-04-05T21:19:33.386Z,100782.81
2023-04-05T21:24:37.588Z,100784.53
2023-04-05T21:29:40.419Z,100775.50
2023-04-05T21:34:43.279Z,100782.94
2023-04-05T21:39:47.463Z,100781.63
2023-04-05T21:44:50.255Z,100779.91
2023-04-05T21:49:53.380Z,100780.38
2023-04-05T21:54:58.242Z,100789.63
2023-04-05T22:00:01.349Z,100784.19
2023-04-05T22:05:04.382Z,100790.53
2023-04-05T22:10:09.935Z,100788.41
2023-04-05T22:15:12.770Z,100795.22
2023-04-05T22:20:15.560Z,100791.38
2023-04-05T22:25:19.783Z,100771.72
2023-04-05T22:30:22.744Z,100767.44
2023-04-05T22:35:25.634Z,100768.19
2023-04-05T22:40:29.764Z,100771.09
2023-04-05T22:45:32.519Z,100758.53
2023-04-05T22:50:35.370Z,100762.25
2023-04-05T22:55:40.093Z,100753.94
2023-04-05T23:00:42.903Z,100743.91
2023-04-05T23:05:45.737Z,100750.31
2023-04-05T23:10:49.972Z,100736.31
2023-04-05T23:15:52.800Z,100741.06
2023-04-05T23:20:55.684Z,100732.84
2023-04-05T23:25:59.852Z,100727.47
2023-04-05T23:31:02.648Z,100726.81
2023-04-05T23:36:06.419Z,100729.34
2023-04-05T23:41:11.009Z,100723.38
2023-04-05T23:46:13.874Z,100718.06
2023-04-05T23:51:16.972Z,100718.84
2023-04-05T23:56:21.149Z,100708.94
